| time (UTC) | temp F | wind direction | speed knots | gust knots | rain 1hr in | rain 24hr in | rain mn in | humidity % | barometer mb |
| 20260505163612 | 80 | 340 | 3.5 | 5.2 | 0.00 | 0.00 | 0.00 | 39 | 1014.5 |
| 20260505163109 | 81 | 338 | 1.7 | 2.6 | 0.00 | 0.00 | 0.00 | 39 | 1014.2 |
| 20260505162606 | 80 | 104 | 0.9 | 0.9 | 0.00 | 0.00 | 0.00 | 39 | 1014.2 |
| 20260505162104 | 80 | 294 | 2.6 | 4.3 | 0.00 | 0.00 | 0.00 | 40 | 1014.5 |
| 20260505161601 | 80 | 354 | 0.9 | 0.9 | 0.00 | 0.00 | 0.00 | 44 | 1014.5 |
| 20260505161058 | 80 | 349 | 2.6 | 4.3 | 0.00 | 0.00 | 0.00 | 42 | 1014.5 |
| 20260505160555 | 80 | 286 | 0.9 | 0.9 | 0.00 | 0.00 | 0.00 | 46 | 1014.5 |
| 20260505153032 | 77 | 191 | 0.9 | 1.7 | 0.00 | 0.00 | 0.00 | 48 | 1015.2 |
| 20260505152529 | 77 | 256 | 0.9 | 0.9 | 0.00 | 0.00 | 0.00 | 50 | 1014.8 |
| 20260505152025 | 77 | 15 | 0.9 | 0.9 | 0.00 | 0.00 | 0.00 | 47 | 1015.2 |
| 20260505151520 | 77 | 96 | 1.7 | 1.7 | 0.00 | 0.00 | 0.00 | 46 | 1015.2 |
| 20260505151018 | 76 | 299 | 0.0 | 0.9 | 0.00 | 0.00 | 0.00 | 48 | 1015.2 |
| 20260505150514 | 76 | 339 | 3.5 | 5.2 | 0.00 | 0.00 | 0.00 | 49 | 1015.2 |
| 20260505140439 | 71 | 31 | 0.0 | 0.0 | 0.00 | 0.00 | 0.00 | 55 | 1015.2 |
| 20260505124852 | 60 | 330 | 0.9 | 0.9 | 0.00 | 0.00 | 0.00 | 66 | 1015.2 |
| 20260505124349 | 59 | 6 | 0.0 | 0.0 | 0.00 | 0.00 | 0.00 | 67 | 1015.5 |
| 20260505123845 | 59 | 319 | 2.6 | 2.6 | 0.00 | 0.00 | 0.00 | 67 | 1015.2 |
| 20260505123342 | 59 | 24 | 0.9 | 0.9 | 0.00 | 0.00 | 0.00 | 69 | 1015.5 |
| 20260505122837 | 58 | 40 | 0.0 | 0.0 | 0.00 | 0.00 | 0.00 | 71 | 1015.5 |
| 20260505122330 | 58 | 46 | 0.9 | 0.9 | 0.00 | 0.00 | 0.00 | 71 | 1015.2 |
| 20260505121826 | 57 | 7 | 0.0 | 0.0 | 0.00 | 0.00 | 0.00 | 72 | 1015.2 |
| 20260505121324 | 57 | 20 | 0.0 | 0.0 | 0.00 | 0.00 | 0.00 | 72 | 1015.2 |
| 20260505120819 | 56 | 24 | 0.0 | 0.0 | 0.00 | 0.00 | 0.00 | 73 | 1015.2 |
| 20260505120316 | 56 | 10 | 0.0 | 0.0 | 0.00 | 0.00 | 0.00 | 73 | 1015.2 |
| 20260505115814 | 55 | 59 | 0.9 | 0.9 | 0.00 | 0.00 | 0.00 | 73 | 1015.2 |
| 20260505115312 | 55 | 348 | 0.9 | 0.9 | 0.00 | 0.00 | 0.00 | 73 | 1015.2 |
| 20260505114810 | 54 | 8 | 0.0 | 0.9 | 0.00 | 0.00 | 0.00 | 75 | 1015.2 |
| 20260505114306 | 54 | 26 | 0.0 | 0.0 | 0.00 | 0.00 | 0.00 | 75 | 1015.2 |
| 20260505113802 | 54 | 11 | 0.0 | 0.0 | 0.00 | 0.00 | 0.00 | 77 | 1015.2 |
| 20260505113259 | 53 | 307 | 0.9 | 0.9 | 0.00 | 0.00 | 0.00 | 76 | 1015.2 |
| 20260505112754 | 53 | 31 | 0.0 | 0.0 | 0.00 | 0.00 | 0.00 | 78 | 1015.2 |
| 20260505112252 | 53 | 31 | 0.0 | 0.0 | 0.00 | 0.00 | 0.00 | 78 | 1014.8 |
| 20260505111753 | 53 | 31 | 0.0 | 0.0 | 0.00 | 0.00 | 0.00 | 77 | 1014.8 |
| 20260505111248 | 53 | 31 | 0.0 | 0.0 | 0.00 | 0.00 | 0.00 | 77 | 1015.2 |
| 20260505110744 | 53 | 31 | 0.0 | 0.0 | 0.00 | 0.00 | 0.00 | 77 | 1015.2 |
| 20260505110243 | 53 | 31 | 0.0 | 0.0 | 0.00 | 0.00 | 0.00 | 77 | 1014.8 |
| 20260505102218 | 53 | 55 | 0.0 | 0.0 | 0.00 | 0.00 | 0.00 | 77 | 1014.5 |
| 20260505101716 | 53 | 57 | 0.0 | 0.0 | 0.00 | 0.00 | 0.00 | 77 | 1014.8 |
| 20260505101212 | 53 | 92 | 0.9 | 0.9 | 0.00 | 0.00 | 0.00 | 76 | 1014.5 |
| 20260505100709 | 54 | 56 | 0.0 | 0.0 | 0.00 | 0.00 | 0.00 | 76 | 1014.5 |
| 20260505100206 | 54 | 50 | 0.0 | 0.0 | 0.00 | 0.00 | 0.00 | 75 | 1014.5 |
| 20260505095701 | 54 | 51 | 0.0 | 0.0 | 0.00 | 0.00 | 0.00 | 75 | 1014.5 |
| 20260505095159 | 53 | 5 | 0.0 | 0.9 | 0.00 | 0.00 | 0.00 | 76 | 1014.5 |
| 20260505094655 | 54 | 7 | 0.0 | 0.0 | 0.00 | 0.00 | 0.00 | 76 | 1014.5 |
| 20260505094151 | 53 | 7 | 0.0 | 0.0 | 0.00 | 0.00 | 0.00 | 76 | 1014.2 |
| 20260505093648 | 53 | 7 | 0.0 | 0.0 | 0.00 | 0.00 | 0.00 | 77 | 1014.2 |
| 20260505093145 | 54 | 7 | 0.0 | 0.0 | 0.00 | 0.00 | 0.00 | 77 | 1014.5 |
| 20260505092642 | 54 | 6 | 0.0 | 0.0 | 0.00 | 0.00 | 0.00 | 77 | 1014.2 |
| 20260505092141 | 54 | 6 | 0.0 | 0.9 | 0.00 | 0.00 | 0.00 | 77 | 1014.2 |
| 20260505091637 | 54 | 7 | 0.0 | 0.0 | 0.00 | 0.00 | 0.00 | 77 | 1013.8 |
| 20260505091135 | 54 | 6 | 0.0 | 0.0 | 0.00 | 0.00 | 0.00 | 75 | 1014.2 |
| 20260505090633 | 55 | 6 | 0.0 | 0.0 | 0.00 | 0.00 | 0.00 | 74 | 1014.5 |
| 20260505090131 | 55 | 6 | 0.0 | 0.0 | 0.00 | 0.00 | 0.00 | 74 | 1014.2 |
| 20260505085628 | 55 | 6 | 0.0 | 0.0 | 0.00 | 0.00 | 0.00 | 74 | 1013.8 |
| 20260505085126 | 55 | 7 | 0.0 | 0.0 | 0.00 | 0.00 | 0.00 | 74 | 1013.8 |
| 20260505084623 | 56 | 8 | 0.0 | 0.0 | 0.00 | 0.00 | 0.00 | 73 | 1014.2 |
| 20260505084122 | 56 | 174 | 0.0 | 0.0 | 0.00 | 0.00 | 0.00 | 73 | 1014.2 |
| 20260505083619 | 56 | 173 | 0.0 | 0.0 | 0.00 | 0.00 | 0.00 | 73 | 1014.2 |
| 20260505083115 | 56 | 56 | 0.0 | 0.9 | 0.00 | 0.00 | 0.00 | 73 | 1014.2 |
| 20260505082611 | 56 | 56 | 0.9 | 0.9 | 0.00 | 0.00 | 0.00 | 73 | 1014.2 |
| 20260505082109 | 56 | 50 | 0.0 | 0.0 | 0.00 | 0.00 | 0.00 | 73 | 1013.8 |
| 20260505081604 | 56 | 28 | 0.0 | 0.9 | 0.00 | 0.00 | 0.00 | 73 | 1013.8 |
| 20260505081102 | 57 | 27 | 0.0 | 0.9 | 0.00 | 0.00 | 0.00 | 73 | 1013.8 |
| 20260505080558 | 57 | 27 | 0.0 | 0.0 | 0.00 | 0.00 | 0.00 | 73 | 1013.8 |
| 20260505080055 | 57 | 27 | 0.0 | 0.0 | 0.00 | 0.00 | 0.00 | 72 | 1013.8 |
| 20260505075550 | 57 | 26 | 0.0 | 0.0 | 0.00 | 0.00 | 0.00 | 71 | 1013.8 |
| 20260505075048 | 57 | 26 | 0.0 | 0.9 | 0.00 | 0.00 | 0.00 | 72 | 1013.8 |
| 20260505074544 | 57 | 19 | 0.0 | 0.0 | 0.00 | 0.00 | 0.00 | 72 | 1013.4 |
| 20260505074042 | 57 | 18 | 0.0 | 0.9 | 0.00 | 0.00 | 0.00 | 74 | 1013.4 |
| 20260505073539 | 57 | 19 | 0.0 | 0.0 | 0.00 | 0.00 | 0.00 | 73 | 1013.4 |
| 20260505073038 | 57 | 358 | 0.0 | 0.0 | 0.00 | 0.00 | 0.00 | 73 | 1013.4 |
| 20260505072533 | 57 | 357 | 0.0 | 0.0 | 0.00 | 0.00 | 0.00 | 71 | 1013.4 |
| 20260505072029 | 57 | 26 | 0.0 | 0.0 | 0.00 | 0.00 | 0.00 | 71 | 1013.4 |
| 20260505071525 | 58 | 26 | 0.0 | 0.0 | 0.00 | 0.00 | 0.00 | 72 | 1013.0 |
| 20260505071023 | 58 | 353 | 0.0 | 0.0 | 0.00 | 0.00 | 0.00 | 71 | 1013.4 |
| 20260505070520 | 58 | 354 | 0.0 | 0.0 | 0.00 | 0.00 | 0.00 | 70 | 1013.4 |
| 20260505070016 | 58 | 5 | 0.0 | 0.0 | 0.00 | 0.00 | 0.00 | 72 | 1013.0 |
| 20260505065512 | 59 | 327 | 0.9 | 0.9 | 0.00 | 0.00 | 0.00 | 72 | 1013.4 |
| 20260505065009 | 59 | 337 | 0.0 | 0.0 | 0.00 | 0.00 | 0.00 | 72 | 1013.4 |
| 20260505064506 | 59 | 2 | 0.0 | 0.0 | 0.00 | 0.00 | 0.00 | 71 | 1013.4 |
| 20260505064004 | 59 | 348 | 0.0 | 0.0 | 0.00 | 0.00 | 0.00 | 72 | 1013.4 |
| 20260505063501 | 58 | 358 | 0.0 | 0.9 | 0.00 | 0.00 | 0.00 | 71 | 1013.0 |
| 20260505062957 | 58 | 358 | 0.0 | 0.9 | 0.00 | 0.00 | 0.00 | 72 | 1013.0 |
| 20260505062454 | 57 | 4 | 0.0 | 0.0 | 0.00 | 0.00 | 0.00 | 75 | 1013.4 |
| 20260505061951 | 56 | 284 | 0.9 | 0.9 | 0.00 | 0.00 | 0.00 | 76 | 1013.0 |
| 20260505061449 | 56 | 348 | 0.0 | 0.0 | 0.00 | 0.00 | 0.00 | 79 | 1013.4 |
| 20260505060946 | 56 | 335 | 0.0 | 0.9 | 0.00 | 0.00 | 0.00 | 80 | 1013.0 |
| 20260505060443 | 56 | 33 | 0.0 | 0.9 | 0.00 | 0.00 | 0.00 | 81 | 1013.4 |
| 20260505055939 | 56 | 29 | 0.0 | 0.0 | 0.00 | 0.00 | 0.00 | 82 | 1013.4 |
| 20260505055435 | 56 | 29 | 0.0 | 0.0 | 0.00 | 0.00 | 0.00 | 81 | 1013.0 |
| 20260505054932 | 56 | 29 | 0.0 | 0.9 | 0.00 | 0.00 | 0.00 | 81 | 1013.4 |
| 20260505054430 | 56 | 29 | 0.0 | 0.0 | 0.00 | 0.00 | 0.00 | 80 | 1013.4 |
| 20260505053927 | 57 | 29 | 0.0 | 0.0 | 0.00 | 0.00 | 0.00 | 79 | 1013.0 |
| 20260505053425 | 58 | 19 | 0.0 | 0.9 | 0.00 | 0.00 | 0.00 | 76 | 1013.4 |
| 20260505052921 | 57 | 40 | 0.0 | 0.9 | 0.00 | 0.00 | 0.00 | 77 | 1013.0 |
| 20260505052418 | 57 | 50 | 0.0 | 0.9 | 0.00 | 0.00 | 0.00 | 77 | 1013.0 |
| 20260505051915 | 57 | 37 | 0.0 | 0.0 | 0.00 | 0.00 | 0.00 | 79 | 1013.0 |
| 20260505051412 | 57 | 33 | 0.0 | 0.9 | 0.00 | 0.00 | 0.00 | 78 | 1013.4 |
| 20260505050910 | 57 | 24 | 0.0 | 0.9 | 0.00 | 0.00 | 0.00 | 79 | 1013.0 |
| 20260505050409 | 57 | 14 | 0.0 | 0.0 | 0.00 | 0.00 | 0.00 | 78 | 1013.4 |
| 20260505041336 | 58 | 358 | 0.0 | 0.0 | 0.00 | 0.00 | 0.00 | 76 | 1013.0 |
| 20260505040833 | 58 | 358 | 0.0 | 0.0 | 0.00 | 0.00 | 0.00 | 75 | 1013.0 |
| 20260505040331 | 58 | 358 | 0.0 | 0.0 | 0.00 | 0.00 | 0.00 | 75 | 1013.0 |
| 20260505035827 | 58 | 358 | 0.0 | 0.0 | 0.00 | 0.00 | 0.00 | 74 | 1013.0 |
| 20260505035323 | 58 | 358 | 0.0 | 0.0 | 0.00 | 0.00 | 0.00 | 74 | 1013.0 |
| 20260505034821 | 59 | 358 | 0.0 | 0.0 | 0.00 | 0.00 | 0.00 | 74 | 1013.0 |
| 20260505034317 | 59 | 358 | 0.0 | 0.0 | 0.00 | 0.00 | 0.00 | 74 | 1013.0 |
| 20260505033814 | 59 | 357 | 0.0 | 0.0 | 0.00 | 0.00 | 0.00 | 73 | 1013.0 |
| 20260505033311 | 58 | 359 | 0.0 | 0.0 | 0.00 | 0.00 | 0.00 | 74 | 1013.0 |
| 20260505032809 | 59 | 0 | 0.0 | 0.0 | 0.00 | 0.00 | 0.00 | 75 | 1013.0 |
| 20260505032305 | 59 | 0 | 0.0 | 0.0 | 0.00 | 0.00 | 0.00 | 75 | 1013.0 |
| 20260505031802 | 59 | 0 | 0.0 | 0.0 | 0.00 | 0.00 | 0.00 | 74 | 1013.0 |
| 20260505031259 | 60 | 0 | 0.0 | 0.0 | 0.00 | 0.00 | 0.00 | 74 | 1013.4 |
| 20260505030756 | 60 | 0 | 0.0 | 0.0 | 0.00 | 0.00 | 0.00 | 73 | 1013.0 |
| 20260505030252 | 61 | 0 | 0.0 | 0.0 | 0.00 | 0.00 | 0.00 | 72 | 1013.0 |
| 20260505025747 | 62 | 0 | 0.0 | 0.0 | 0.00 | 0.00 | 0.00 | 71 | 1013.4 |
| 20260505025246 | 62 | 4 | 0.0 | 0.0 | 0.00 | 0.00 | 0.00 | 69 | 1013.0 |
| 20260505024744 | 62 | 5 | 0.0 | 0.0 | 0.00 | 0.00 | 0.00 | 68 | 1013.4 |
| 20260505024241 | 62 | 40 | 0.0 | 0.0 | 0.00 | 0.00 | 0.00 | 68 | 1013.4 |
| 20260505023738 | 62 | 40 | 0.0 | 0.0 | 0.00 | 0.00 | 0.00 | 69 | 1013.4 |
| 20260505023235 | 63 | 338 | 0.0 | 0.0 | 0.00 | 0.00 | 0.00 | 70 | 1013.4 |
| 20260505022732 | 63 | 337 | 0.0 | 0.0 | 0.00 | 0.00 | 0.00 | 67 | 1013.0 |
| 20260505022229 | 64 | 337 | 0.0 | 0.0 | 0.00 | 0.00 | 0.00 | 66 | 1013.4 |
| 20260505021726 | 64 | 18 | 0.0 | 0.9 | 0.00 | 0.00 | 0.00 | 63 | 1013.4 |
| 20260505021223 | 63 | 38 | 0.0 | 0.0 | 0.00 | 0.00 | 0.00 | 65 | 1013.4 |
| 20260505020719 | 62 | 39 | 0.0 | 0.0 | 0.00 | 0.00 | 0.00 | 67 | 1013.0 |
| 20260505020214 | 63 | 39 | 0.0 | 0.0 | 0.00 | 0.00 | 0.00 | 68 | 1013.4 |
| 20260505015712 | 63 | 38 | 0.0 | 0.0 | 0.00 | 0.00 | 0.00 | 67 | 1013.0 |
| 20260505015209 | 62 | 38 | 0.0 | 0.0 | 0.00 | 0.00 | 0.00 | 67 | 1013.0 |
| 20260505014705 | 62 | 38 | 0.0 | 0.0 | 0.00 | 0.00 | 0.00 | 67 | 1013.4 |
| 20260505014203 | 62 | 38 | 0.0 | 0.0 | 0.00 | 0.00 | 0.00 | 69 | 1013.4 |
| 20260505013659 | 62 | 38 | 0.0 | 0.0 | 0.00 | 0.00 | 0.00 | 70 | 1013.4 |
| 20260505013156 | 63 | 38 | 0.0 | 0.0 | 0.00 | 0.00 | 0.00 | 70 | 1013.4 |
| 20260505012655 | 63 | 39 | 0.0 | 0.0 | 0.00 | 0.00 | 0.00 | 67 | 1013.0 |
| 20260505012147 | 63 | 38 | 0.0 | 0.0 | 0.00 | 0.00 | 0.00 | 65 | 1013.0 |
| 20260505011642 | 63 | 38 | 0.0 | 0.0 | 0.00 | 0.00 | 0.00 | 67 | 1013.0 |
| 20260505011139 | 63 | 38 | 0.0 | 0.0 | 0.00 | 0.00 | 0.00 | 67 | 1012.7 |
| 20260505010639 | 63 | 39 | 0.0 | 0.0 | 0.00 | 0.00 | 0.00 | 67 | 1013.0 |
| 20260505010137 | 63 | 39 | 0.0 | 0.0 | 0.00 | 0.00 | 0.00 | 72 | 1013.0 |
| 20260505005632 | 63 | 38 | 0.0 | 0.0 | 0.00 | 0.00 | 0.00 | 70 | 1012.7 |
| 20260505005130 | 63 | 38 | 0.0 | 0.0 | 0.00 | 0.00 | 0.00 | 70 | 1012.7 |
| 20260505004627 | 63 | 38 | 0.0 | 0.0 | 0.00 | 0.00 | 0.00 | 69 | 1012.7 |
| 20260505004123 | 63 | 38 | 0.0 | 0.0 | 0.00 | 0.00 | 0.00 | 71 | 1012.4 |
| 20260505003621 | 64 | 38 | 0.0 | 0.0 | 0.00 | 0.00 | 0.00 | 70 | 1012.4 |
| 20260505003118 | 64 | 38 | 0.0 | 0.0 | 0.00 | 0.00 | 0.00 | 67 | 1012.4 |
| 20260505002614 | 64 | 38 | 0.0 | 0.0 | 0.00 | 0.00 | 0.00 | 68 | 1012.4 |
| 20260505002113 | 64 | 38 | 0.0 | 0.0 | 0.00 | 0.00 | 0.00 | 66 | 1012.4 |
| 20260505001609 | 64 | 40 | 0.0 | 0.9 | 0.00 | 0.00 | 0.00 | 70 | 1012.0 |
| 20260505001107 | 64 | 12 | 0.0 | 0.0 | 0.00 | 0.00 | 0.00 | 76 | 1012.4 |
| 20260505000604 | 64 | 13 | 0.0 | 0.0 | 0.00 | 0.00 | 0.00 | 72 | 1012.4 |
| 20260504235558 | 65 | 12 | 0.0 | 0.0 | 0.00 | 0.00 | 0.00 | 73 | 1012.4 |
| 20260504235054 | 65 | 12 | 0.0 | 0.0 | 0.00 | 0.00 | 0.00 | 74 | 1012.4 |
| 20260504234551 | 65 | 25 | 0.0 | 0.9 | 0.00 | 0.00 | 0.00 | 69 | 1012.0 |
| 20260504234048 | 65 | 35 | 0.0 | 0.0 | 0.00 | 0.00 | 0.00 | 71 | 1012.0 |
| 20260504233543 | 66 | 34 | 0.0 | 0.0 | 0.00 | 0.00 | 0.00 | 71 | 1012.4 |
| 20260504233040 | 66 | 1 | 0.9 | 0.9 | 0.00 | 0.00 | 0.00 | 70 | 1012.0 |
| 20260504232538 | 66 | 21 | 0.0 | 0.0 | 0.00 | 0.00 | 0.00 | 73 | 1012.0 |
| 20260504232035 | 66 | 21 | 0.0 | 0.0 | 0.00 | 0.00 | 0.00 | 71 | 1012.0 |
| 20260504231532 | 66 | 21 | 0.0 | 0.0 | 0.00 | 0.00 | 0.00 | 74 | 1012.0 |
| 20260504231028 | 67 | 21 | 0.0 | 0.0 | 0.00 | 0.00 | 0.00 | 73 | 1012.4 |
| 20260504230524 | 67 | 21 | 0.0 | 0.0 | 0.00 | 0.00 | 0.00 | 73 | 1012.0 |
| 20260504230023 | 68 | 52 | 0.0 | 0.9 | 0.00 | 0.00 | 0.00 | 66 | 1012.0 |
| 20260504225520 | 70 | 60 | 0.9 | 1.7 | 0.00 | 0.00 | 0.00 | 64 | 1012.4 |
| 20260504225017 | 72 | 39 | 0.9 | 1.7 | 0.00 | 0.00 | 0.00 | 51 | 1012.7 |
| 20260504224514 | 72 | 328 | 0.9 | 1.7 | 0.00 | 0.00 | 0.00 | 49 | 1012.7 |
| 20260504224011 | 72 | 350 | 0.0 | 0.0 | 0.00 | 0.00 | 0.00 | 49 | 1012.4 |
| 20260504223507 | 72 | 281 | 0.9 | 0.9 | 0.00 | 0.00 | 0.00 | 49 | 1012.4 |
| 20260504223003 | 72 | 32 | 0.9 | 0.9 | 0.00 | 0.00 | 0.00 | 48 | 1012.0 |
| 20260504222500 | 72 | 302 | 0.9 | 0.9 | 0.00 | 0.00 | 0.00 | 48 | 1011.7 |
| 20260504221958 | 72 | 163 | 0.0 | 0.9 | 0.00 | 0.00 | 0.00 | 47 | 1012.0 |
| 20260504221455 | 73 | 78 | 0.0 | 0.0 | 0.00 | 0.00 | 0.00 | 48 | 1012.0 |
| 20260504220952 | 73 | 302 | 0.9 | 0.9 | 0.00 | 0.00 | 0.00 | 48 | 1012.0 |
| 20260504220448 | 73 | 356 | 0.9 | 0.9 | 0.00 | 0.00 | 0.00 | 45 | 1012.0 |
| 20260504215945 | 73 | 345 | 0.0 | 0.0 | 0.00 | 0.00 | 0.00 | 46 | 1012.0 |
| 20260504215442 | 74 | 159 | 0.9 | 0.9 | 0.00 | 0.00 | 0.00 | 44 | 1012.0 |
| 20260504214938 | 75 | 332 | 0.9 | 0.9 | 0.00 | 0.00 | 0.00 | 45 | 1012.0 |
| 20260504214435 | 75 | 336 | 0.0 | 0.0 | 0.00 | 0.00 | 0.00 | 44 | 1012.4 |
| 20260504213932 | 76 | 51 | 0.9 | 1.7 | 0.00 | 0.00 | 0.00 | 43 | 1011.7 |
| 20260504213427 | 76 | 297 | 0.9 | 0.9 | 0.00 | 0.00 | 0.00 | 43 | 1012.0 |
| 20260504212925 | 76 | 314 | 0.9 | 0.9 | 0.00 | 0.00 | 0.00 | 42 | 1012.0 |
| 20260504212420 | 77 | 345 | 0.0 | 0.9 | 0.00 | 0.00 | 0.00 | 44 | 1012.0 |
| 20260504211919 | 77 | 329 | 0.0 | 0.9 | 0.00 | 0.00 | 0.00 | 42 | 1012.0 |
| 20260504211415 | 77 | 331 | 0.9 | 0.9 | 0.00 | 0.00 | 0.00 | 40 | 1011.7 |
| 20260504210912 | 78 | 89 | 1.7 | 2.6 | 0.00 | 0.00 | 0.00 | 40 | 1012.0 |
| 20260504210409 | 78 | 278 | 0.0 | 0.9 | 0.00 | 0.00 | 0.00 | 39 | 1012.4 |
| 20260504205906 | 79 | 10 | 0.9 | 0.9 | 0.00 | 0.00 | 0.00 | 39 | 1012.0 |
| 20260504205404 | 78 | 226 | 1.7 | 1.7 | 0.00 | 0.00 | 0.00 | 38 | 1012.0 |
| 20260504204902 | 78 | 314 | 1.7 | 1.7 | 0.00 | 0.00 | 0.00 | 39 | 1012.0 |
| 20260504204400 | 79 | 12 | 0.9 | 0.9 | 0.00 | 0.00 | 0.00 | 38 | 1012.0 |
| 20260504203859 | 78 | 0 | 0.0 | 0.9 | 0.00 | 0.00 | 0.00 | 40 | 1012.0 |
| 20260504203355 | 77 | 38 | 0.9 | 0.9 | 0.00 | 0.00 | 0.00 | 40 | 1011.7 |
| 20260504202851 | 77 | 236 | 0.9 | 0.9 | 0.00 | 0.00 | 0.00 | 40 | 1012.0 |
| 20260504202348 | 76 | 354 | 0.0 | 0.0 | 0.00 | 0.00 | 0.00 | 42 | 1012.0 |
| 20260504201845 | 76 | 99 | 0.9 | 0.9 | 0.00 | 0.00 | 0.00 | 43 | 1012.4 |
| 20260504201343 | 77 | 340 | 0.0 | 0.9 | 0.00 | 0.00 | 0.00 | 43 | 1012.4 |
| 20260504200840 | 77 | 15 | 0.9 | 0.9 | 0.00 | 0.00 | 0.00 | 41 | 1012.4 |
| 20260504200336 | 76 | 267 | 0.9 | 0.9 | 0.00 | 0.00 | 0.00 | 46 | 1012.4 |
| 20260504195833 | 76 | 101 | 0.9 | 1.7 | 0.00 | 0.00 | 0.00 | 40 | 1012.4 |
| 20260504195328 | 75 | 357 | 0.0 | 0.9 | 0.00 | 0.00 | 0.00 | 43 | 1012.7 |
| 20260504194826 | 75 | 307 | 0.9 | 1.7 | 0.00 | 0.00 | 0.00 | 46 | 1012.7 |
| 20260504194321 | 76 | 44 | 1.7 | 2.6 | 0.00 | 0.00 | 0.00 | 41 | 1013.0 |
| 20260504193818 | 76 | 318 | 1.7 | 2.6 | 0.00 | 0.00 | 0.00 | 40 | 1012.7 |
| 20260504193315 | 76 | 242 | 1.7 | 2.6 | 0.00 | 0.00 | 0.00 | 41 | 1012.7 |
| 20260504192814 | 77 | 132 | 0.9 | 0.9 | 0.00 | 0.00 | 0.00 | 43 | 1013.0 |
| 20260504192311 | 77 | 226 | 0.9 | 1.7 | 0.00 | 0.00 | 0.00 | 42 | 1013.0 |
| 20260504191810 | 77 | 233 | 0.9 | 1.7 | 0.00 | 0.00 | 0.00 | 40 | 1013.0 |
| 20260504191307 | 75 | 350 | 0.0 | 0.0 | 0.00 | 0.00 | 0.00 | 44 | 1013.4 |
| 20260504190802 | 73 | 186 | 0.9 | 0.9 | 0.00 | 0.00 | 0.00 | 44 | 1013.4 |
| 20260504190258 | 73 | 343 | 0.9 | 1.7 | 0.00 | 0.00 | 0.00 | 42 | 1013.4 |
| 20260504185755 | 73 | 188 | 0.9 | 1.7 | 0.00 | 0.00 | 0.00 | 45 | 1013.4 |
| 20260504185252 | 74 | 41 | 0.9 | 0.9 | 0.00 | 0.00 | 0.00 | 45 | 1013.8 |
| 20260504184748 | 75 | 273 | 0.9 | 1.7 | 0.00 | 0.00 | 0.00 | 44 | 1013.8 |
| 20260504184244 | 74 | 348 | 0.9 | 0.9 | 0.00 | 0.00 | 0.00 | 42 | 1013.8 |
| 20260504183740 | 75 | 304 | 0.9 | 1.7 | 0.00 | 0.00 | 0.00 | 42 | 1013.8 |
| 20260504183237 | 74 | 12 | 0.0 | 0.0 | 0.00 | 0.00 | 0.00 | 41 | 1014.2 |
| 20260504182735 | 75 | 3 | 2.6 | 2.6 | 0.00 | 0.00 | 0.00 | 39 | 1013.8 |
| 20260504182232 | 75 | 108 | 1.7 | 1.7 | 0.00 | 0.00 | 0.00 | 40 | 1014.2 |
| 20260504181730 | 76 | 69 | 0.9 | 1.7 | 0.00 | 0.00 | 0.00 | 40 | 1014.2 |
| 20260504181227 | 76 | 97 | 2.6 | 2.6 | 0.00 | 0.00 | 0.00 | 40 | 1013.8 |
| 20260504180726 | 75 | 242 | 0.0 | 1.7 | 0.00 | 0.00 | 0.00 | 42 | 1014.5 |
| 20260504180224 | 74 | 282 | 0.9 | 0.9 | 0.00 | 0.00 | 0.00 | 44 | 1014.5 |
| 20260504175721 | 74 | 14 | 1.7 | 4.3 | 0.00 | 0.00 | 0.00 | 40 | 1014.5 |
| 20260504175218 | 73 | 4 | 0.9 | 0.9 | 0.00 | 0.00 | 0.00 | 41 | 1014.5 |
| 20260504174716 | 73 | 63 | 1.7 | 2.6 | 0.00 | 0.00 | 0.00 | 42 | 1014.8 |
| 20260504174214 | 72 | 328 | 0.0 | 0.9 | 0.00 | 0.00 | 0.00 | 46 | 1014.8 |
| 20260504173710 | 72 | 16 | 0.9 | 0.9 | 0.00 | 0.00 | 0.00 | 43 | 1014.8 |
| 20260504173207 | 72 | 158 | 0.9 | 0.9 | 0.00 | 0.00 | 0.00 | 41 | 1014.5 |
| 20260504172704 | 72 | 269 | 0.9 | 0.9 | 0.00 | 0.00 | 0.00 | 45 | 1014.8 |
| 20260504172200 | 72 | 281 | 0.9 | 0.9 | 0.00 | 0.00 | 0.00 | 44 | 1014.8 |
| 20260504171657 | 72 | 17 | 0.9 | 0.9 | 0.00 | 0.00 | 0.00 | 43 | 1014.8 |
| 20260504171154 | 71 | 51 | 0.0 | 0.0 | 0.00 | 0.00 | 0.00 | 43 | 1014.8 |
| 20260504170650 | 71 | 120 | 0.9 | 1.7 | 0.00 | 0.00 | 0.00 | 43 | 1014.8 |
| 20260504170148 | 70 | 359 | 1.7 | 1.7 | 0.00 | 0.00 | 0.00 | 45 | 1014.8 |